Time;durP1;ratioP1;P1;durP2;ratioP2;P2;SDS_P1;SDS_P2;PMS_P1;PMS_P2;Temp;Humidity;BMP_temperature;BMP_pressure;BME280_temperature;BME280_humidity;BME280_pressure;Samples;Min_cycle;Max_cycle;Signal;HPM_P1;HPM_P2
2021/08/03 00:01:28;;;;;;;15.30;10.80;;;10.70;99.90;;;;;;4195204;28;20403;-88
2021/08/03 00:03:35;;;;;;;15.70;11.40;;;10.70;99.90;;;;;;4195119;28;20028;-89
2021/08/03 00:05:44;;;;;;;15.77;9.93;;;10.70;99.90;;;;;;4191902;28;20044;-89
2021/08/03 00:07:47;;;;;;;17.67;10.05;;;10.70;99.90;;;;;;4192687;28;20060;-85
2021/08/03 00:09:49;;;;;;;17.42;11.52;;;10.80;99.90;;;;;;4195748;28;20533;-88
2021/08/03 00:11:52;;;;;;;14.25;10.25;;;10.80;99.90;;;;;;4192303;28;20568;-88
2021/08/03 00:13:53;;;;;;;15.02;9.05;;;10.90;99.90;;;;;;4196869;28;20474;-89
2021/08/03 00:16:01;;;;;;;19.10;11.10;;;10.90;99.90;;;;;;4193729;28;20396;-87
2021/08/03 00:18:04;;;;;;;15.70;10.25;;;10.90;99.90;;;;;;4210245;28;20024;-87
2021/08/03 00:20:06;;;;;;;12.23;9.00;;;10.90;99.90;;;;;;4191547;28;20047;-86
2021/08/03 00:22:13;;;;;;;21.02;10.10;;;11.00;99.90;;;;;;4195183;28;20553;-86
2021/08/03 00:24:15;;;;;;;16.70;10.38;;;11.00;99.90;;;;;;4188838;28;20041;-88
2021/08/03 00:26:16;;;;;;;17.20;11.23;;;11.00;99.90;;;;;;4192223;28;20368;-86
2021/08/03 00:28:17;;;;;;;14.73;10.35;;;11.00;99.90;;;;;;4199095;28;20021;-85
2021/08/03 00:30:25;;;;;;;15.05;10.20;;;11.00;99.90;;;;;;4197254;28;20036;-86
2021/08/03 00:32:28;;;;;;;15.75;9.65;;;11.00;99.90;;;;;;4193323;28;20466;-84
2021/08/03 00:34:34;;;;;;;18.40;10.05;;;11.00;99.90;;;;;;4211093;28;20036;-86
2021/08/03 00:36:34;;;;;;;22.27;11.30;;;11.00;99.90;;;;;;4196005;28;20368;-85
2021/08/03 00:38:37;;;;;;;13.15;8.93;;;11.00;99.90;;;;;;4189230;28;20135;-86
2021/08/03 00:41:04;;;;;;;21.08;10.88;;;11.00;99.90;;;;;;4192374;28;20124;-86
2021/08/03 00:43:06;;;;;;;24.75;13.05;;;11.00;99.90;;;;;;4184195;28;20033;-86
2021/08/03 00:45:18;;;;;;;17.45;11.30;;;10.90;99.90;;;;;;4196157;28;20031;-85
2021/08/03 00:47:20;;;;;;;21.40;11.18;;;11.00;99.90;;;;;;4189437;28;20522;-86
2021/08/03 00:49:22;;;;;;;19.30;12.50;;;10.90;99.90;;;;;;4197664;28;20028;-84
2021/08/03 00:51:25;;;;;;;17.77;12.15;;;10.90;99.90;;;;;;4198046;28;20033;-84
2021/08/03 00:53:26;;;;;;;21.02;13.68;;;10.90;99.90;;;;;;4186211;28;20074;-83
2021/08/03 00:55:27;;;;;;;19.70;12.35;;;11.00;99.90;;;;;;4187542;28;20422;-83
2021/08/03 00:57:33;;;;;;;21.70;12.95;;;11.10;99.90;;;;;;4196364;28;20498;-84
2021/08/03 00:59:35;;;;;;;23.33;13.25;;;11.10;99.90;;;;;;4197980;28;20111;-84
2021/08/03 01:01:35;;;;;;;17.77;12.82;;;11.10;99.90;;;;;;4192477;28;20024;-87
2021/08/03 01:03:47;;;;;;;18.70;12.13;;;11.20;99.90;;;;;;4194546;28;20529;-90
2021/08/03 01:06:01;;;;;;;21.00;14.63;;;11.20;99.90;;;;;;4190836;28;20471;-91
2021/08/03 01:08:24;;;;;;;22.00;14.30;;;11.30;99.90;;;;;;4197060;28;20055;-84
2021/08/03 01:10:44;;;;;;;24.58;13.45;;;11.40;99.90;;;;;;4189221;28;20054;-87
2021/08/03 01:12:51;;;;;;;21.33;13.40;;;11.50;99.90;;;;;;4194028;28;20036;-89
2021/08/03 01:15:16;;;;;;;26.13;13.57;;;11.60;99.90;;;;;;4195186;28;20032;-90
2021/08/03 01:17:37;;;;;;;23.33;13.25;;;11.70;99.90;;;;;;4142299;28;20501;-89
2021/08/03 01:20:05;;;;;;;18.95;11.70;;;11.80;99.90;;;;;;4202891;28;20039;-90
2021/08/03 01:22:10;;;;;;;27.70;14.13;;;11.80;99.90;;;;;;4196275;28;20081;-90
2021/08/03 01:24:31;;;;;;;17.55;12.20;;;11.80;99.90;;;;;;4201961;28;20111;-91
2021/08/03 01:27:13;;;;;;;16.45;11.98;;;11.80;99.90;;;;;;4204079;28;20043;-86
2021/08/03 01:29:18;;;;;;;17.30;11.10;;;11.80;99.90;;;;;;4197830;28;20068;-91
2021/08/03 01:31:21;;;;;;;17.35;11.98;;;11.80;99.90;;;;;;4192426;28;20037;-91
2021/08/03 01:33:33;;;;;;;17.05;10.82;;;11.80;99.90;;;;;;4187729;28;20040;-89
2021/08/03 01:35:48;;;;;;;14.23;10.90;;;11.80;99.90;;;;;;4200152;28;20219;-89
2021/08/03 01:38:02;;;;;;;15.35;10.98;;;11.70;99.90;;;;;;4212540;28;20064;-92
2021/08/03 01:40:15;;;;;;;14.00;10.57;;;11.60;99.90;;;;;;4190420;28;20024;-91
2021/08/03 01:42:18;;;;;;;15.45;11.35;;;11.50;99.90;;;;;;4213388;28;20394;-92
2021/08/03 01:44:22;;;;;;;18.85;12.98;;;11.50;99.90;;;;;;4214360;28;20032;-91
2021/08/03 01:46:26;;;;;;;19.70;13.43;;;11.50;99.90;;;;;;4193754;28;20051;-92
2021/08/03 01:48:31;;;;;;;21.17;13.60;;;11.50;99.90;;;;;;4193386;28;20511;-92
2021/08/03 01:50:40;;;;;;;20.25;13.45;;;11.50;99.90;;;;;;4195662;28;20103;-90
2021/08/03 01:52:42;;;;;;;22.63;13.70;;;11.40;99.90;;;;;;4214551;28;20028;-91
2021/08/03 01:54:48;;;;;;;17.90;12.73;;;11.40;99.90;;;;;;4199553;28;20071;-90
2021/08/03 01:57:03;;;;;;;23.08;12.75;;;11.30;99.90;;;;;;4197845;28;20130;-91
2021/08/03 01:59:12;;;;;;;15.38;12.93;;;11.30;99.90;;;;;;4198410;28;20047;-91
2021/08/03 02:01:15;;;;;;;22.73;11.98;;;11.20;99.90;;;;;;4191325;28;20524;-92
2021/08/03 02:03:33;;;;;;;16.85;12.52;;;11.30;99.90;;;;;;4215183;28;20077;-91
2021/08/03 02:05:52;;;;;;;24.25;15.05;;;11.20;99.90;;;;;;4209626;28;20033;-91
2021/08/03 02:07:54;;;;;;;22.23;14.88;;;11.10;99.90;;;;;;4190576;28;20028;-92
2021/08/03 02:09:57;;;;;;;17.17;12.10;;;11.00;99.90;;;;;;4203307;28;20541;-90
2021/08/03 02:12:01;;;;;;;18.95;13.63;;;11.10;99.90;;;;;;4196751;28;20047;-90
2021/08/03 02:14:12;;;;;;;25.63;15.90;;;11.00;99.90;;;;;;4194008;28;20025;-87
2021/08/03 02:16:18;;;;;;;23.73;14.77;;;10.90;99.90;;;;;;4208275;28;20506;-91
2021/08/03 02:18:34;;;;;;;21.23;16.25;;;11.00;99.90;;;;;;4213426;28;20020;-92
2021/08/03 02:20:35;;;;;;;26.13;14.48;;;10.70;99.90;;;;;;4206411;28;20036;-90
2021/08/03 02:22:45;;;;;;;20.40;15.75;;;10.80;99.90;;;;;;4205837;28;20027;-90
2021/08/03 02:27:48;;;;;;;24.33;16.35;;;11.00;99.90;;;;;;4208554;28;20043;-91
2021/08/03 02:30:00;;;;;;;24.73;17.08;;;10.70;99.90;;;;;;4195957;28;20032;-91
2021/08/03 02:35:13;;;;;;;29.63;16.92;;;11.00;99.90;;;;;;4208236;28;20060;-89
2021/08/03 02:37:19;;;;;;;23.85;14.68;;;11.00;99.90;;;;;;4198204;28;20035;-91
2021/08/03 02:39:29;;;;;;;19.02;13.10;;;10.90;99.90;;;;;;4211847;28;20065;-91
2021/08/03 02:41:41;;;;;;;29.33;18.00;;;10.90;99.90;;;;;;4197666;28;20048;-91
2021/08/03 02:43:52;;;;;;;25.02;17.02;;;11.00;99.90;;;;;;4205676;28;20036;-90
2021/08/03 02:46:03;;;;;;;27.13;16.92;;;10.80;99.90;;;;;;4212416;28;20122;-92
2021/08/03 02:48:15;;;;;;;25.02;17.00;;;11.10;99.90;;;;;;4191368;28;20051;-92
2021/08/03 02:50:20;;;;;;;18.80;14.13;;;10.80;99.90;;;;;;4205224;28;20125;-89
2021/08/03 02:52:27;;;;;;;26.77;16.33;;;10.90;99.90;;;;;;4214079;28;20043;-90
2021/08/03 02:54:34;;;;;;;33.08;18.58;;;11.00;99.90;;;;;;4214865;28;20035;-93
2021/08/03 02:56:36;;;;;;;26.23;17.83;;;10.80;99.90;;;;;;4216295;28;20036;-91
2021/08/03 02:58:54;;;;;;;28.83;17.67;;;11.00;99.90;;;;;;4196346;28;20035;-93
2021/08/03 03:01:00;;;;;;;25.80;18.23;;;10.90;99.90;;;;;;4200003;28;20111;-92
2021/08/03 03:03:07;;;;;;;25.38;17.80;;;11.00;99.90;;;;;;4193724;28;20463;-90
2021/08/03 03:05:29;;;;;;;27.50;18.52;;;11.00;99.90;;;;;;4195619;28;20041;-90
2021/08/03 03:07:49;;;;;;;30.15;17.35;;;11.10;99.90;;;;;;4191666;28;20429;-90
2021/08/03 03:09:52;;;;;;;30.30;17.83;;;11.00;99.90;;;;;;4199597;28;20447;-92
2021/08/03 03:12:01;;;;;;;;;;;10.90;99.90;;;;;;4194303;28;20028;-92
2021/08/03 03:14:06;;;;;;;21.40;16.45;;;11.00;99.90;;;;;;4200731;28;19912;-88
2021/08/03 03:16:12;;;;;;;32.13;18.02;;;10.80;99.90;;;;;;4201015;28;20020;-90
2021/08/03 03:18:19;;;;;;;28.90;18.75;;;10.90;99.90;;;;;;4213659;28;20016;-92
2021/08/03 03:20:31;;;;;;;27.25;17.33;;;10.90;99.90;;;;;;4205070;28;20025;-91
2021/08/03 03:22:47;;;;;;;23.95;16.75;;;10.90;99.90;;;;;;4204223;28;20028;-90
2021/08/03 03:24:50;;;;;;;25.08;16.42;;;10.90;99.90;;;;;;4194707;28;20064;-92
2021/08/03 03:27:03;;;;;;;24.25;17.30;;;11.00;99.90;;;;;;4191954;28;20468;-91
2021/08/03 03:29:06;;;;;;;27.20;17.60;;;10.90;99.90;;;;;;4192062;28;20118;-91
2021/08/03 03:31:07;;;;;;;30.02;18.85;;;11.00;99.90;;;;;;4188276;28;20029;-89
2021/08/03 03:33:22;;;;;;;26.50;16.70;;;11.10;99.90;;;;;;4182632;28;20519;-92
2021/08/03 03:35:25;;;;;;;32.42;18.55;;;11.10;99.90;;;;;;4203139;28;20060;-92
2021/08/03 03:37:33;;;;;;;27.00;16.27;;;11.10;99.90;;;;;;4188383;28;20029;-91
2021/08/03 03:39:36;;;;;;;27.20;17.10;;;11.00;99.90;;;;;;4201458;28;20032;-93
2021/08/03 03:41:52;;;;;;;;;;;11.00;99.90;;;;;;4214045;28;20467;-91
2021/08/03 03:44:19;;;;;;;21.10;15.20;;;11.00;99.90;;;;;;4212351;28;19912;-92
2021/08/03 03:47:00;;;;;;;18.33;13.02;;;11.00;99.90;;;;;;4190709;28;20557;-91
2021/08/03 03:49:11;;;;;;;17.80;11.32;;;10.90;99.90;;;;;;4204120;28;20524;-90
2021/08/03 03:51:19;;;;;;;22.45;13.30;;;10.90;99.90;;;;;;4206433;28;20033;-92
2021/08/03 03:53:41;;;;;;;13.15;10.93;;;10.80;99.90;;;;;;4192295;28;20044;-92
2021/08/03 03:55:59;;;;;;;16.73;11.13;;;11.00;99.90;;;;;;4195512;28;20052;-92
2021/08/03 03:58:06;;;;;;;17.30;10.73;;;10.90;99.90;;;;;;4213383;28;20034;-90
2021/08/03 04:00:18;;;;;;;16.02;11.70;;;10.90;99.90;;;;;;4187507;28;20427;-91
2021/08/03 04:02:22;;;;;;;18.10;12.23;;;11.00;99.90;;;;;;4214856;28;20106;-87
2021/08/03 04:04:34;;;;;;;15.05;11.25;;;11.00;99.90;;;;;;4199605;28;20543;-92
2021/08/03 04:06:45;;;;;;;17.30;10.57;;;11.00;99.90;;;;;;4200211;28;20034;-93
2021/08/03 04:09:05;;;;;;;17.30;10.73;;;11.00;99.90;;;;;;4197329;28;20553;-92
2021/08/03 04:11:16;;;;;;;14.90;11.38;;;11.00;99.90;;;;;;4216475;28;20432;-90
2021/08/03 04:13:19;;;;;;;17.05;11.60;;;10.90;99.90;;;;;;4212670;28;21227;-92
2021/08/03 04:15:32;;;;;;;15.77;10.77;;;11.00;99.90;;;;;;4218117;28;20039;-92
2021/08/03 04:17:49;;;;;;;15.95;10.85;;;10.90;99.90;;;;;;4217797;28;20067;-93
2021/08/03 04:19:57;;;;;;;14.45;10.10;;;11.10;99.90;;;;;;4193275;28;20476;-92
2021/08/03 04:22:12;;;;;;;16.23;9.48;;;11.00;99.90;;;;;;4198070;28;20100;-93
2021/08/03 04:24:13;;;;;;;15.05;9.35;;;11.10;99.90;;;;;;4196344;28;20041;-93
2021/08/03 04:26:19;;;;;;;13.93;10.48;;;11.10;99.90;;;;;;4215826;28;20104;-93
2021/08/03 04:28:22;;;;;;;14.40;9.23;;;11.10;99.90;;;;;;4198436;28;20430;-94
2021/08/03 04:30:25;;;;;;;18.25;9.60;;;11.10;99.90;;;;;;4217601;28;20035;-92
2021/08/03 04:32:35;;;;;;;16.90;9.80;;;11.20;99.90;;;;;;4201651;28;20040;-88
2021/08/03 04:34:47;;;;;;;17.92;9.95;;;11.20;99.90;;;;;;4205255;28;20055;-92
2021/08/03 04:37:11;;;;;;;14.65;9.80;;;11.20;99.90;;;;;;4197535;28;20123;-93
2021/08/03 04:39:12;;;;;;;17.98;10.80;;;11.30;99.90;;;;;;4190575;28;20108;-92
2021/08/03 04:41:14;;;;;;;12.38;9.38;;;11.30;99.90;;;;;;4200273;28;20033;-93
2021/08/03 04:43:22;;;;;;;11.75;9.85;;;11.40;99.90;;;;;;4217157;28;20035;-92
2021/08/03 04:45:32;;;;;;;13.50;8.88;;;11.30;99.90;;;;;;4196170;28;20028;-92
2021/08/03 04:47:44;;;;;;;13.48;8.70;;;11.50;99.90;;;;;;4193329;28;20033;-92
2021/08/03 04:49:46;;;;;;;14.07;8.70;;;11.50;99.90;;;;;;4199947;28;20044;-91
2021/08/03 04:51:55;;;;;;;12.07;9.32;;;11.60;99.90;;;;;;4209613;28;20687;-92
2021/08/03 04:54:19;;;;;;;14.20;9.60;;;11.70;99.90;;;;;;4206599;28;20099;-92
2021/08/03 04:56:41;;;;;;;15.68;9.75;;;11.80;99.90;;;;;;4193468;28;20056;-92
2021/08/03 04:58:56;;;;;;;14.20;9.52;;;11.70;99.90;;;;;;4189104;28;20017;-92
2021/08/03 05:01:03;;;;;;;11.38;9.35;;;11.80;99.90;;;;;;4195265;28;20036;-92
2021/08/03 05:03:04;;;;;;;14.32;8.30;;;11.90;99.90;;;;;;4192112;28;20501;-92
2021/08/03 05:05:09;;;;;;;14.75;8.55;;;12.00;99.90;;;;;;4199687;28;20054;-92
2021/08/03 05:07:22;;;;;;;12.63;7.72;;;12.00;99.90;;;;;;4198035;28;20091;-90
2021/08/03 05:09:24;;;;;;;;;;;12.00;99.90;;;;;;4195903;28;20047;-91
2021/08/03 05:11:33;;;;;;;10.02;7.18;;;12.10;99.90;;;;;;4198874;28;19942;-90
2021/08/03 05:13:42;;;;;;;13.88;8.60;;;12.10;99.90;;;;;;4195815;28;20078;-93
2021/08/03 05:16:02;;;;;;;12.82;7.47;;;12.10;99.90;;;;;;4197161;28;20049;-92
2021/08/03 05:18:04;;;;;;;13.30;6.88;;;12.10;99.90;;;;;;4197587;28;20549;-92
2021/08/03 05:20:24;;;;;;;15.15;7.70;;;12.10;99.90;;;;;;4198552;28;20031;-91
2021/08/03 05:22:26;;;;;;;13.57;8.85;;;12.20;99.90;;;;;;4200139;28;20565;-90
2021/08/03 05:24:27;;;;;;;9.32;7.00;;;12.30;99.90;;;;;;4219169;28;20491;-92
2021/08/03 05:26:33;;;;;;;9.63;7.30;;;12.10;99.90;;;;;;4198482;28;20131;-92
2021/08/03 05:28:39;;;;;;;9.43;7.22;;;12.30;99.90;;;;;;4194595;28;20041;-92
2021/08/03 05:30:41;;;;;;;15.00;7.57;;;12.30;99.90;;;;;;4196091;28;20077;-94
2021/08/03 05:32:43;;;;;;;13.07;7.03;;;12.40;99.90;;;;;;4198268;28;20033;-92
2021/08/03 05:34:44;;;;;;;9.50;6.70;;;12.50;99.90;;;;;;4199954;28;20036;-93
2021/08/03 05:36:45;;;;;;;11.18;7.05;;;12.60;99.90;;;;;;4196567;28;20031;-88
2021/08/03 05:38:47;;;;;;;13.20;7.50;;;12.80;99.90;;;;;;4212618;28;20078;-92
2021/08/03 05:40:55;;;;;;;13.55;6.65;;;12.90;99.90;;;;;;4197989;28;20036;-93
2021/08/03 05:42:56;;;;;;;8.23;6.82;;;13.10;99.90;;;;;;4211296;28;20039;-92
2021/08/03 05:45:03;;;;;;;8.32;6.25;;;13.30;99.90;;;;;;4181760;28;20423;-91
2021/08/03 05:47:04;;;;;;;11.02;6.70;;;13.40;99.90;;;;;;4195811;28;20047;-92
2021/08/03 05:49:13;;;;;;;10.32;5.60;;;13.50;99.90;;;;;;4196740;28;20111;-88
2021/08/03 05:51:34;;;;;;;7.93;5.60;;;13.60;99.90;;;;;;4212968;28;20044;-91
2021/08/03 05:53:54;;;;;;;8.88;6.38;;;13.80;99.90;;;;;;4211986;28;20035;-92
2021/08/03 05:56:01;;;;;;;7.85;5.30;;;13.90;99.90;;;;;;4197482;28;20096;-91
2021/08/03 05:58:03;;;;;;;10.45;5.95;;;14.00;99.90;;;;;;4190592;28;20028;-91
2021/08/03 06:00:10;;;;;;;7.32;5.40;;;14.00;99.90;;;;;;4202882;28;20032;-92
2021/08/03 06:02:13;;;;;;;7.53;5.85;;;14.10;99.90;;;;;;4190310;28;20020;-91
2021/08/03 06:04:32;;;;;;;8.25;5.80;;;14.10;99.90;;;;;;4193559;28;20154;-91
2021/08/03 06:06:46;;;;;;;8.45;5.63;;;14.30;99.90;;;;;;4192279;28;20040;-91
2021/08/03 06:08:52;;;;;;;7.03;5.90;;;14.40;99.90;;;;;;4209416;28;20070;-89
2021/08/03 06:11:01;;;;;;;7.95;5.45;;;14.60;99.90;;;;;;4193909;28;20024;-92
2021/08/03 06:13:06;;;;;;;9.80;4.95;;;14.70;99.90;;;;;;4205206;28;20028;-88
2021/08/03 06:15:17;;;;;;;7.47;4.68;;;14.80;99.90;;;;;;4197063;28;20436;-93
2021/08/03 06:18:02;;;;;;;4.95;4.55;;;15.10;99.90;;;;;;4196271;28;20073;-92
2021/08/03 06:20:05;;;;;;;5.75;4.38;;;15.20;99.90;;;;;;4166733;28;20484;-88
2021/08/03 06:22:09;;;;;;;6.78;4.70;;;15.30;99.90;;;;;;4213226;28;20036;-89
2021/08/03 06:24:10;;;;;;;4.30;3.80;;;15.40;99.90;;;;;;4194500;28;20428;-91
2021/08/03 06:26:20;;;;;;;10.52;4.43;;;15.50;99.90;;;;;;4195114;28;20043;-90
2021/08/03 06:28:29;;;;;;;7.60;3.58;;;15.60;99.90;;;;;;4212045;28;20032;-90
2021/08/03 06:30:30;;;;;;;6.78;3.55;;;15.80;99.90;;;;;;4195340;28;20115;-86
2021/08/03 06:32:33;;;;;;;5.30;3.75;;;15.80;99.90;;;;;;4194702;28;20040;-89
2021/08/03 06:34:36;;;;;;;6.28;3.85;;;15.90;99.90;;;;;;4197205;28;20050;-93
2021/08/03 06:36:42;;;;;;;5.20;2.90;;;15.90;99.90;;;;;;4191117;28;20037;-92
2021/08/03 06:38:45;;;;;;;6.03;2.88;;;15.90;99.90;;;;;;4189273;28;20440;-92
2021/08/03 06:41:24;;;;;;;5.20;3.20;;;16.00;99.90;;;;;;4209172;28;20501;-92
2021/08/03 06:43:28;;;;;;;4.80;2.97;;;16.10;99.90;;;;;;4195917;28;20157;-85
2021/08/03 06:45:32;;;;;;;3.60;2.78;;;16.10;99.90;;;;;;4194559;28;20037;-91
2021/08/03 06:47:42;;;;;;;6.53;2.90;;;16.00;99.90;;;;;;4197513;28;20025;-91
2021/08/03 06:49:53;;;;;;;5.85;2.63;;;16.00;99.90;;;;;;4197637;28;20059;-91
2021/08/03 06:51:56;;;;;;;5.45;2.78;;;16.10;99.90;;;;;;4194206;28;20066;-90
2021/08/03 06:54:00;;;;;;;7.70;3.20;;;16.20;99.90;;;;;;4198089;28;20040;-89
2021/08/03 06:56:03;;;;;;;3.72;2.60;;;16.30;99.90;;;;;;4195436;28;20519;-87
2021/08/03 06:58:05;;;;;;;7.10;3.05;;;16.40;99.90;;;;;;4197096;28;20032;-90
2021/08/03 07:00:09;;;;;;;5.65;3.20;;;16.40;99.90;;;;;;4197144;28;20037;-89
2021/08/03 07:02:16;;;;;;;5.38;2.85;;;16.40;99.90;;;;;;4195683;28;20125;-89
2021/08/03 07:04:29;;;;;;;4.35;2.85;;;16.40;99.90;;;;;;4195125;28;20044;-90
2021/08/03 07:06:38;;;;;;;8.57;2.95;;;16.40;99.90;;;;;;4195394;28;20036;-92
2021/08/03 07:08:53;;;;;;;9.68;3.50;;;16.60;99.90;;;;;;4197666;28;20052;-89
2021/08/03 07:10:54;;;;;;;5.57;2.72;;;16.50;99.90;;;;;;4189250;28;20032;-88
2021/08/03 07:12:55;;;;;;;4.63;2.70;;;16.50;99.90;;;;;;4195252;28;20045;-89
2021/08/03 07:14:57;;;;;;;4.43;3.03;;;16.30;99.90;;;;;;4188888;28;20040;-90
2021/08/03 07:16:58;;;;;;;6.07;2.90;;;16.30;99.90;;;;;;4194431;28;20366;-90
2021/08/03 07:19:00;;;;;;;5.65;2.90;;;16.30;99.90;;;;;;4191763;28;20071;-91
2021/08/03 07:21:03;;;;;;;4.87;2.50;;;16.30;99.90;;;;;;4196135;28;20037;-91
2021/08/03 07:23:04;;;;;;;5.15;2.60;;;16.20;99.90;;;;;;4193136;28;20500;-91
2021/08/03 07:25:06;;;;;;;5.13;2.63;;;16.30;99.90;;;;;;4199061;28;20044;-89
2021/08/03 07:27:06;;;;;;;7.40;2.80;;;16.20;99.90;;;;;;4190154;28;20040;-89
2021/08/03 07:29:07;;;;;;;4.70;2.83;;;16.20;99.90;;;;;;4195694;28;20075;-88
2021/08/03 07:31:11;;;;;;;4.90;2.95;;;16.10;99.90;;;;;;4194452;28;20078;-91
2021/08/03 07:33:17;;;;;;;4.65;2.63;;;16.20;99.90;;;;;;4194171;28;20087;-87
2021/08/03 07:35:18;;;;;;;4.18;2.53;;;16.10;99.90;;;;;;4195999;28;20379;-89
2021/08/03 07:37:19;;;;;;;9.95;3.63;;;16.20;99.90;;;;;;4198713;28;20029;-87
2021/08/03 07:39:20;;;;;;;4.97;2.95;;;16.30;99.90;;;;;;4199386;28;20021;-88
2021/08/03 07:41:25;;;;;;;5.03;3.25;;;16.40;99.90;;;;;;4198499;28;20037;-86
2021/08/03 07:43:33;;;;;;;7.35;4.05;;;16.50;99.90;;;;;;4198390;28;20037;-86
2021/08/03 07:45:35;;;;;;;5.70;5.07;;;16.70;99.90;;;;;;4197261;28;20158;-92
2021/08/03 07:47:39;;;;;;;10.32;4.68;;;16.70;99.90;;;;;;4197931;28;20107;-92
2021/08/03 07:49:40;;;;;;;11.65;4.60;;;16.80;99.90;;;;;;4197703;28;20083;-89
2021/08/03 07:51:53;;;;;;;8.52;6.20;;;17.10;99.90;;;;;;4200701;28;20036;-86
2021/08/03 07:53:54;;;;;;;;;;;17.10;99.90;;;;;;4198755;28;20029;-90
2021/08/03 07:55:55;;;;;;;10.43;6.20;;;17.20;99.90;;;;;;4194567;28;20311;-89
2021/08/03 07:58:04;;;;;;;10.32;6.05;;;17.30;99.90;;;;;;4202142;28;20021;-91
2021/08/03 08:00:07;;;;;;;7.43;5.72;;;17.50;99.90;;;;;;4195994;28;20063;-89
2021/08/03 08:02:24;;;;;;;14.07;6.65;;;17.80;99.90;;;;;;4198296;28;20469;-92
2021/08/03 08:04:30;;;;;;;8.32;7.22;;;18.10;99.90;;;;;;4194311;28;20538;-87
2021/08/03 08:06:36;;;;;;;11.68;9.70;;;17.90;99.90;;;;;;4197302;28;20136;-90
2021/08/03 08:08:43;;;;;;;12.07;8.55;;;17.70;99.90;;;;;;4198761;28;20029;-91
2021/08/03 08:10:44;;;;;;;9.73;7.80;;;17.90;99.90;;;;;;4192474;28;20036;-92
2021/08/03 08:12:47;;;;;;;9.00;8.05;;;18.10;99.90;;;;;;4197496;28;20036;-84
2021/08/03 08:14:52;;;;;;;13.38;9.07;;;18.50;99.90;;;;;;4197739;28;20040;-85
2021/08/03 08:16:54;;;;;;;13.00;10.45;;;19.00;99.90;;;;;;4195465;28;20507;-87
2021/08/03 08:18:56;;;;;;;14.23;9.15;;;19.20;99.90;;;;;;4197923;28;20028;-87
2021/08/03 08:21:01;;;;;;;15.02;9.15;;;19.50;99.90;;;;;;4192093;28;20029;-87
2021/08/03 08:23:15;;;;;;;12.68;9.32;;;19.70;99.90;;;;;;4195784;28;20037;-88
2021/08/03 08:25:16;;;;;;;14.55;10.68;;;19.90;99.90;;;;;;4199148;28;20051;-90
2021/08/03 08:27:17;;;;;;;16.45;13.05;;;19.70;99.90;;;;;;4196913;28;20036;-89
2021/08/03 08:29:19;;;;;;;12.43;9.60;;;19.40;99.90;;;;;;4199540;28;20024;-89
2021/08/03 08:31:22;;;;;;;11.90;10.70;;;19.20;99.90;;;;;;4197708;28;20032;-88
2021/08/03 08:33:24;;;;;;;12.60;11.27;;;19.10;99.90;;;;;;4195944;28;20043;-90
2021/08/03 08:35:27;;;;;;;13.98;11.40;;;19.00;99.90;;;;;;4188602;28;20064;-89
2021/08/03 08:37:27;;;;;;;12.03;10.73;;;19.10;99.90;;;;;;4196029;28;20052;-88
2021/08/03 08:39:34;;;;;;;13.15;10.75;;;19.20;99.90;;;;;;4197447;28;20032;-88
2021/08/03 08:41:37;;;;;;;11.43;10.20;;;19.30;99.90;;;;;;4198154;28;20086;-91
2021/08/03 08:43:40;;;;;;;11.50;10.18;;;19.50;99.90;;;;;;4198494;28;20111;-89
2021/08/03 08:45:44;;;;;;;16.65;13.43;;;19.50;99.90;;;;;;4194432;28;20032;-89
2021/08/03 08:47:46;;;;;;;13.52;11.65;;;19.50;99.90;;;;;;4188373;28;20101;-89
2021/08/03 08:49:49;;;;;;;15.38;12.55;;;19.50;99.90;;;;;;4199233;28;20079;-89
2021/08/03 08:51:52;;;;;;;15.07;13.20;;;19.40;99.90;;;;;;4197810;28;20036;-88
2021/08/03 08:53:52;;;;;;;16.60;12.38;;;19.60;99.90;;;;;;4194576;28;20533;-90
2021/08/03 08:56:04;;;;;;;17.45;12.90;;;19.80;99.90;;;;;;4196290;28;20033;-89
2021/08/03 08:58:07;;;;;;;14.63;12.13;;;20.30;99.90;;;;;;4201183;28;20069;-88
2021/08/03 09:00:15;;;;;;;14.45;12.13;;;20.40;99.90;;;;;;4193514;28;20496;-91
2021/08/03 09:02:51;;;;;;;14.05;11.65;;;20.60;99.90;;;;;;4194553;28;20562;-90
2021/08/03 09:04:57;;;;;;;16.75;12.85;;;20.60;99.90;;;;;;4193850;28;20107;-90
2021/08/03 09:07:05;;;;;;;17.50;13.57;;;20.30;99.90;;;;;;4195563;28;20045;-91
2021/08/03 09:09:19;;;;;;;17.13;13.48;;;20.30;99.90;;;;;;4194979;28;20095;-92
2021/08/03 09:11:21;;;;;;;15.77;13.52;;;20.00;99.90;;;;;;4193695;28;20085;-91
2021/08/03 09:13:23;;;;;;;17.77;13.32;;;20.10;99.90;;;;;;4197249;28;20977;-90
2021/08/03 09:15:25;;;;;;;20.40;14.25;;;20.50;99.90;;;;;;4198240;28;20025;-89
2021/08/03 09:17:31;;;;;;;14.70;13.13;;;20.70;99.90;;;;;;4195965;28;20040;-90
2021/08/03 09:19:37;;;;;;;16.02;13.00;;;20.60;99.90;;;;;;4192500;28;20032;-90
2021/08/03 09:21:48;;;;;;;19.30;14.57;;;20.60;99.90;;;;;;4196194;28;20146;-92
2021/08/03 09:23:51;;;;;;;16.00;12.95;;;20.60;99.90;;;;;;4194583;28;20078;-90
2021/08/03 09:25:54;;;;;;;17.30;14.05;;;20.10;99.90;;;;;;4193352;28;20502;-87
2021/08/03 09:28:03;;;;;;;19.25;14.07;;;20.10;99.90;;;;;;4194174;28;20510;-85
2021/08/03 09:30:06;;;;;;;17.92;14.52;;;19.80;99.90;;;;;;4197406;28;20423;-87
2021/08/03 09:32:08;;;;;;;;;;;19.90;99.90;;;;;;4195176;28;20109;-85
2021/08/03 09:34:11;;;;;;;18.13;15.88;;;19.80;99.90;;;;;;4198395;28;19908;-85
2021/08/03 09:36:12;;;;;;;15.82;13.95;;;19.70;99.90;;;;;;4194432;28;20029;-86
2021/08/03 09:38:21;;;;;;;26.95;23.13;;;19.40;99.90;;;;;;4195111;28;20101;-85
2021/08/03 09:40:34;;;;;;;17.73;13.63;;;19.30;99.90;;;;;;4195532;28;20122;-86
2021/08/03 09:42:37;;;;;;;17.00;13.10;;;19.30;99.90;;;;;;4197611;28;20032;-86
2021/08/03 09:45:00;;;;;;;16.02;12.68;;;19.10;99.90;;;;;;4191291;28;20059;-85
2021/08/03 09:47:07;;;;;;;18.40;14.88;;;18.90;99.90;;;;;;4193900;28;20086;-84
2021/08/03 09:49:08;;;;;;;18.40;13.15;;;18.70;99.90;;;;;;4193005;28;20031;-85
2021/08/03 09:51:21;;;;;;;14.63;12.38;;;18.60;99.90;;;;;;4193783;28;20874;-85
2021/08/03 09:53:50;;;;;;;18.38;13.57;;;18.50;99.90;;;;;;4193341;28;20068;-85
2021/08/03 09:55:55;;;;;;;22.13;14.20;;;18.60;99.90;;;;;;4188867;28;20044;-85
2021/08/03 09:58:14;;;;;;;21.05;14.38;;;18.60;99.90;;;;;;4197852;28;20028;-85
2021/08/03 10:00:34;;;;;;;15.77;13.90;;;18.60;99.90;;;;;;4191140;28;20171;-85
2021/08/03 10:02:35;;;;;;;17.70;14.60;;;18.40;99.90;;;;;;4193506;28;20040;-85
2021/08/03 10:04:41;;;;;;;19.08;13.95;;;18.50;99.90;;;;;;4198235;28;20434;-83
2021/08/03 10:06:41;;;;;;;13.98;12.45;;;18.50;99.90;;;;;;4192635;28;20033;-85
2021/08/03 10:08:44;;;;;;;15.55;13.95;;;18.50;99.90;;;;;;4197660;28;20032;-84
2021/08/03 10:10:47;;;;;;;17.90;13.20;;;18.40;99.90;;;;;;4195738;28;20037;-85
2021/08/03 10:12:49;;;;;;;20.63;13.68;;;18.30;99.90;;;;;;4195612;28;20044;-85
2021/08/03 10:14:50;;;;;;;18.92;13.68;;;18.20;99.90;;;;;;4194764;28;20031;-84
2021/08/03 10:16:59;;;;;;;19.05;13.32;;;18.20;99.90;;;;;;4195324;28;20474;-85
2021/08/03 10:19:01;;;;;;;16.33;13.35;;;18.20;99.90;;;;;;4193402;28;20025;-85
2021/08/03 10:21:03;;;;;;;18.42;13.75;;;18.20;99.90;;;;;;4196192;28;20470;-84
2021/08/03 10:23:06;;;;;;;16.55;12.77;;;18.20;99.90;;;;;;4195320;28;20028;-86
2021/08/03 10:25:14;;;;;;;21.02;13.30;;;18.20;99.90;;;;;;4204558;28;20073;-84
2021/08/03 10:27:15;;;;;;;17.60;12.77;;;18.20;99.90;;;;;;4190389;28;20037;-86
2021/08/03 10:29:24;;;;;;;16.45;13.88;;;18.10;99.90;;;;;;4204918;28;20036;-85
2021/08/03 10:31:41;;;;;;;16.92;13.02;;;18.00;99.90;;;;;;4193166;28;20044;-84
2021/08/03 10:33:44;;;;;;;22.40;13.38;;;18.00;99.90;;;;;;4191678;28;20426;-85
2021/08/03 10:35:49;;;;;;;18.30;14.38;;;18.00;99.90;;;;;;4191959;28;20420;-86
2021/08/03 10:37:58;;;;;;;17.23;13.50;;;17.90;99.90;;;;;;4213744;28;20032;-86
2021/08/03 10:39:59;;;;;;;18.08;13.55;;;17.80;99.90;;;;;;4212156;28;20032;-84
2021/08/03 10:42:05;;;;;;;20.10;13.80;;;17.80;99.90;;;;;;4211455;28;20025;-82
2021/08/03 10:44:37;;;;;;;18.42;14.80;;;17.80;99.90;;;;;;4212778;28;20028;-85
2021/08/03 10:46:41;;;;;;;18.35;13.23;;;17.60;99.90;;;;;;4194546;28;20127;-82
2021/08/03 10:48:43;;;;;;;19.90;14.90;;;17.60;99.90;;;;;;4211408;28;20514;-82
2021/08/03 10:50:44;;;;;;;20.23;14.18;;;17.50;99.90;;;;;;4212477;28;20032;-82
2021/08/03 10:52:44;;;;;;;18.33;13.70;;;17.50;99.90;;;;;;4192856;28;20044;-86
2021/08/03 10:54:52;;;;;;;18.95;14.75;;;17.60;99.90;;;;;;4193580;28;20115;-85
2021/08/03 10:56:54;;;;;;;17.55;13.25;;;17.50;99.90;;;;;;4195150;28;20054;-86
2021/08/03 10:59:37;;;;;;;18.60;13.32;;;17.40;99.90;;;;;;4196073;28;20041;-87